sensor_id;sensor_type;location;lat;lon;timestamp;temperature;humidity
52869;DHT22;39100;53.480;6.158;2023-08-07T00:00:27;16.30;99.90
52869;DHT22;39100;53.480;6.158;2023-08-07T00:02:52;16.30;99.90
52869;DHT22;39100;53.480;6.158;2023-08-07T00:05:18;16.30;99.90
52869;DHT22;39100;53.480;6.158;2023-08-07T00:07:43;16.30;99.90
52869;DHT22;39100;53.480;6.158;2023-08-07T00:10:09;16.20;99.90
52869;DHT22;39100;53.480;6.158;2023-08-07T00:12:35;16.20;99.90
52869;DHT22;39100;53.480;6.158;2023-08-07T00:15:04;16.20;99.90
52869;DHT22;39100;53.480;6.158;2023-08-07T00:17:31;16.20;99.90
52869;DHT22;39100;53.480;6.158;2023-08-07T00:19:56;16.40;99.90
52869;DHT22;39100;53.480;6.158;2023-08-07T00:22:22;16.20;99.90
52869;DHT22;39100;53.480;6.158;2023-08-07T00:24:48;16.20;99.90
52869;DHT22;39100;53.480;6.158;2023-08-07T00:27:13;16.20;99.90
52869;DHT22;39100;53.480;6.158;2023-08-07T00:29:40;16.20;99.90
52869;DHT22;39100;53.480;6.158;2023-08-07T00:32:05;16.20;99.90
52869;DHT22;39100;53.480;6.158;2023-08-07T00:34:31;16.20;99.90
52869;DHT22;39100;53.480;6.158;2023-08-07T00:36:57;16.50;99.90
52869;DHT22;39100;53.480;6.158;2023-08-07T00:39:23;16.20;99.90
52869;DHT22;39100;53.480;6.158;2023-08-07T00:41:48;16.20;99.90
52869;DHT22;39100;53.480;6.158;2023-08-07T00:44:14;16.20;99.90
52869;DHT22;39100;53.480;6.158;2023-08-07T00:46:40;16.20;99.90
52869;DHT22;39100;53.480;6.158;2023-08-07T00:49:07;16.20;99.90
52869;DHT22;39100;53.480;6.158;2023-08-07T00:51:33;16.20;99.90
52869;DHT22;39100;53.480;6.158;2023-08-07T00:54:00;16.20;99.90
52869;DHT22;39100;53.480;6.158;2023-08-07T00:56:28;16.20;99.90
52869;DHT22;39100;53.480;6.158;2023-08-07T00:58:53;16.20;99.90
52869;DHT22;39100;53.480;6.158;2023-08-07T01:01:19;16.20;99.90
52869;DHT22;39100;53.480;6.158;2023-08-07T01:03:45;16.20;99.90
52869;DHT22;39100;53.480;6.158;2023-08-07T01:06:11;16.20;99.90
52869;DHT22;39100;53.480;6.158;2023-08-07T01:08:36;16.20;99.90
52869;DHT22;39100;53.480;6.158;2023-08-07T01:11:34;16.20;99.90
52869;DHT22;39100;53.480;6.158;2023-08-07T01:17:05;16.20;99.90
52869;DHT22;39100;53.480;6.158;2023-08-07T01:19:31;16.30;99.90
52869;DHT22;39100;53.480;6.158;2023-08-07T01:22:12;16.30;99.90
52869;DHT22;39100;53.480;6.158;2023-08-07T01:24:39;16.30;99.90
52869;DHT22;39100;53.480;6.158;2023-08-07T01:30:21;16.30;99.90
52869;DHT22;39100;53.480;6.158;2023-08-07T01:33:02;16.40;99.90
52869;DHT22;39100;53.480;6.158;2023-08-07T01:35:33;16.40;99.90
52869;DHT22;39100;53.480;6.158;2023-08-07T01:38:01;16.30;99.90
52869;DHT22;39100;53.480;6.158;2023-08-07T01:40:28;16.30;99.90
52869;DHT22;39100;53.480;6.158;2023-08-07T01:42:54;16.30;99.90
52869;DHT22;39100;53.480;6.158;2023-08-07T01:45:24;16.40;99.90
52869;DHT22;39100;53.480;6.158;2023-08-07T01:47:50;16.40;99.90
52869;DHT22;39100;53.480;6.158;2023-08-07T01:50:15;16.40;99.90
52869;DHT22;39100;53.480;6.158;2023-08-07T01:52:41;16.40;99.90
52869;DHT22;39100;53.480;6.158;2023-08-07T01:55:07;16.40;99.90
52869;DHT22;39100;53.480;6.158;2023-08-07T01:57:32;16.30;99.90
52869;DHT22;39100;53.480;6.158;2023-08-07T01:59:58;16.20;99.90
52869;DHT22;39100;53.480;6.158;2023-08-07T02:02:24;16.20;99.90
52869;DHT22;39100;53.480;6.158;2023-08-07T02:04:49;16.20;99.90
52869;DHT22;39100;53.480;6.158;2023-08-07T02:07:15;16.10;99.90
52869;DHT22;39100;53.480;6.158;2023-08-07T02:09:40;16.10;99.90
52869;DHT22;39100;53.480;6.158;2023-08-07T02:12:06;16.10;99.90
52869;DHT22;39100;53.480;6.158;2023-08-07T02:14:32;16.10;99.90
52869;DHT22;39100;53.480;6.158;2023-08-07T02:16:57;16.00;99.90
52869;DHT22;39100;53.480;6.158;2023-08-07T02:19:23;16.00;99.90
52869;DHT22;39100;53.480;6.158;2023-08-07T02:21:48;16.00;99.90
52869;DHT22;39100;53.480;6.158;2023-08-07T02:24:14;16.00;99.90
52869;DHT22;39100;53.480;6.158;2023-08-07T02:26:39;16.00;99.90
52869;DHT22;39100;53.480;6.158;2023-08-07T02:29:05;16.00;99.90
52869;DHT22;39100;53.480;6.158;2023-08-07T02:31:32;16.00;99.90
52869;DHT22;39100;53.480;6.158;2023-08-07T02:33:58;16.00;99.90
52869;DHT22;39100;53.480;6.158;2023-08-07T02:36:23;16.00;99.90
52869;DHT22;39100;53.480;6.158;2023-08-07T02:38:49;16.10;99.90
52869;DHT22;39100;53.480;6.158;2023-08-07T02:41:14;16.10;99.90
52869;DHT22;39100;53.480;6.158;2023-08-07T02:43:40;16.10;99.90
52869;DHT22;39100;53.480;6.158;2023-08-07T02:46:05;16.10;99.90
52869;DHT22;39100;53.480;6.158;2023-08-07T02:48:31;16.10;99.90
52869;DHT22;39100;53.480;6.158;2023-08-07T02:50:56;16.10;99.90
52869;DHT22;39100;53.480;6.158;2023-08-07T02:53:22;16.10;99.90
52869;DHT22;39100;53.480;6.158;2023-08-07T02:55:48;16.10;99.90
52869;DHT22;39100;53.480;6.158;2023-08-07T02:58:13;16.10;99.90
52869;DHT22;39100;53.480;6.158;2023-08-07T03:00:39;16.10;99.90
52869;DHT22;39100;53.480;6.158;2023-08-07T03:03:04;16.10;99.90
52869;DHT22;39100;53.480;6.158;2023-08-07T03:05:30;16.10;99.90
52869;DHT22;39100;53.480;6.158;2023-08-07T03:07:55;16.40;99.90
52869;DHT22;39100;53.480;6.158;2023-08-07T03:10:21;16.10;99.90
52869;DHT22;39100;53.480;6.158;2023-08-07T03:12:47;16.10;99.90
52869;DHT22;39100;53.480;6.158;2023-08-07T03:15:12;16.20;99.90
52869;DHT22;39100;53.480;6.158;2023-08-07T03:17:38;16.10;99.90
52869;DHT22;39100;53.480;6.158;2023-08-07T03:20:04;16.00;99.90
52869;DHT22;39100;53.480;6.158;2023-08-07T03:22:30;16.00;99.90
52869;DHT22;39100;53.480;6.158;2023-08-07T03:24:55;16.00;99.90
52869;DHT22;39100;53.480;6.158;2023-08-07T03:27:21;16.00;99.90
52869;DHT22;39100;53.480;6.158;2023-08-07T03:29:46;16.00;99.90
52869;DHT22;39100;53.480;6.158;2023-08-07T03:32:12;16.00;99.90
52869;DHT22;39100;53.480;6.158;2023-08-07T03:34:38;16.00;99.90
52869;DHT22;39100;53.480;6.158;2023-08-07T03:37:03;16.00;99.90
52869;DHT22;39100;53.480;6.158;2023-08-07T03:39:29;16.00;99.90
52869;DHT22;39100;53.480;6.158;2023-08-07T03:41:54;16.00;99.90
52869;DHT22;39100;53.480;6.158;2023-08-07T03:44:20;16.00;99.90
52869;DHT22;39100;53.480;6.158;2023-08-07T03:46:46;16.00;99.90
52869;DHT22;39100;53.480;6.158;2023-08-07T03:49:11;15.90;99.90
52869;DHT22;39100;53.480;6.158;2023-08-07T03:51:37;15.90;99.90
52869;DHT22;39100;53.480;6.158;2023-08-07T03:54:02;15.90;99.90
52869;DHT22;39100;53.480;6.158;2023-08-07T03:56:28;15.90;99.90
52869;DHT22;39100;53.480;6.158;2023-08-07T03:58:57;16.00;99.90
52869;DHT22;39100;53.480;6.158;2023-08-07T04:01:23;16.00;99.90
52869;DHT22;39100;53.480;6.158;2023-08-07T04:03:48;16.00;99.90
52869;DHT22;39100;53.480;6.158;2023-08-07T04:06:14;16.00;99.90
52869;DHT22;39100;53.480;6.158;2023-08-07T04:08:42;15.90;99.90
52869;DHT22;39100;53.480;6.158;2023-08-07T04:11:08;15.80;99.90
52869;DHT22;39100;53.480;6.158;2023-08-07T04:13:34;15.80;99.90
52869;DHT22;39100;53.480;6.158;2023-08-07T04:16:00;15.70;99.90
52869;DHT22;39100;53.480;6.158;2023-08-07T04:18:30;15.70;99.90
52869;DHT22;39100;53.480;6.158;2023-08-07T04:20:57;15.70;99.90
52869;DHT22;39100;53.480;6.158;2023-08-07T04:23:23;15.60;99.90
52869;DHT22;39100;53.480;6.158;2023-08-07T04:25:50;15.50;99.90
52869;DHT22;39100;53.480;6.158;2023-08-07T04:28:16;15.50;99.90
52869;DHT22;39100;53.480;6.158;2023-08-07T04:30:43;15.50;99.90
52869;DHT22;39100;53.480;6.158;2023-08-07T04:33:09;15.50;99.90
52869;DHT22;39100;53.480;6.158;2023-08-07T04:35:34;15.50;99.90
52869;DHT22;39100;53.480;6.158;2023-08-07T04:38:00;15.50;99.90
52869;DHT22;39100;53.480;6.158;2023-08-07T04:40:27;15.50;99.90
52869;DHT22;39100;53.480;6.158;2023-08-07T04:42:53;15.60;99.90
52869;DHT22;39100;53.480;6.158;2023-08-07T04:45:18;15.60;99.90
52869;DHT22;39100;53.480;6.158;2023-08-07T04:47:44;15.60;99.90
52869;DHT22;39100;53.480;6.158;2023-08-07T04:50:09;15.60;99.90
52869;DHT22;39100;53.480;6.158;2023-08-07T04:52:35;15.60;99.90
52869;DHT22;39100;53.480;6.158;2023-08-07T04:55:01;15.60;99.90
52869;DHT22;39100;53.480;6.158;2023-08-07T04:57:27;15.60;99.90
52869;DHT22;39100;53.480;6.158;2023-08-07T04:59:53;15.60;99.90
52869;DHT22;39100;53.480;6.158;2023-08-07T05:02:19;15.60;99.90
52869;DHT22;39100;53.480;6.158;2023-08-07T05:04:45;15.60;99.90
52869;DHT22;39100;53.480;6.158;2023-08-07T05:07:11;15.60;99.90
52869;DHT22;39100;53.480;6.158;2023-08-07T05:09:36;15.60;99.90
52869;DHT22;39100;53.480;6.158;2023-08-07T05:12:03;15.70;99.90
52869;DHT22;39100;53.480;6.158;2023-08-07T05:14:29;15.70;99.90
52869;DHT22;39100;53.480;6.158;2023-08-07T05:16:55;15.60;99.90
52869;DHT22;39100;53.480;6.158;2023-08-07T05:19:20;15.60;99.90
52869;DHT22;39100;53.480;6.158;2023-08-07T05:21:46;15.60;99.90
52869;DHT22;39100;53.480;6.158;2023-08-07T05:24:15;15.60;99.90
52869;DHT22;39100;53.480;6.158;2023-08-07T05:26:41;15.60;99.90
52869;DHT22;39100;53.480;6.158;2023-08-07T05:29:06;15.80;99.90
52869;DHT22;39100;53.480;6.158;2023-08-07T05:31:33;15.70;99.90
52869;DHT22;39100;53.480;6.158;2023-08-07T05:33:59;15.80;99.90
52869;DHT22;39100;53.480;6.158;2023-08-07T05:36:24;15.80;99.90
52869;DHT22;39100;53.480;6.158;2023-08-07T05:38:50;15.80;99.90
52869;DHT22;39100;53.480;6.158;2023-08-07T05:41:16;15.80;99.90
52869;DHT22;39100;53.480;6.158;2023-08-07T05:43:42;15.80;99.90
52869;DHT22;39100;53.480;6.158;2023-08-07T05:46:07;15.70;99.90
52869;DHT22;39100;53.480;6.158;2023-08-07T05:48:33;15.80;99.90
52869;DHT22;39100;53.480;6.158;2023-08-07T05:50:58;15.80;99.90
52869;DHT22;39100;53.480;6.158;2023-08-07T05:53:24;15.80;99.90
52869;DHT22;39100;53.480;6.158;2023-08-07T05:55:49;15.90;99.90
52869;DHT22;39100;53.480;6.158;2023-08-07T05:58:15;16.10;99.90
52869;DHT22;39100;53.480;6.158;2023-08-07T06:00:41;15.80;99.90
52869;DHT22;39100;53.480;6.158;2023-08-07T06:03:06;15.70;99.90
52869;DHT22;39100;53.480;6.158;2023-08-07T06:05:33;15.60;99.90
52869;DHT22;39100;53.480;6.158;2023-08-07T06:07:58;15.50;99.90
52869;DHT22;39100;53.480;6.158;2023-08-07T06:10:24;15.50;99.90
52869;DHT22;39100;53.480;6.158;2023-08-07T06:12:49;15.40;99.90
52869;DHT22;39100;53.480;6.158;2023-08-07T06:15:15;15.40;99.90
52869;DHT22;39100;53.480;6.158;2023-08-07T06:17:41;15.40;99.90
52869;DHT22;39100;53.480;6.158;2023-08-07T06:20:08;15.40;99.90
52869;DHT22;39100;53.480;6.158;2023-08-07T06:22:34;15.30;99.90
52869;DHT22;39100;53.480;6.158;2023-08-07T06:25:00;15.30;99.90
52869;DHT22;39100;53.480;6.158;2023-08-07T06:27:26;15.30;99.90
52869;DHT22;39100;53.480;6.158;2023-08-07T06:29:51;15.30;99.90
52869;DHT22;39100;53.480;6.158;2023-08-07T06:32:17;15.30;99.90
52869;DHT22;39100;53.480;6.158;2023-08-07T06:34:44;15.30;99.90
52869;DHT22;39100;53.480;6.158;2023-08-07T06:37:09;15.20;99.90
52869;DHT22;39100;53.480;6.158;2023-08-07T06:39:35;15.30;99.90
52869;DHT22;39100;53.480;6.158;2023-08-07T06:42:01;15.30;99.90
52869;DHT22;39100;53.480;6.158;2023-08-07T06:44:26;15.30;99.90
52869;DHT22;39100;53.480;6.158;2023-08-07T06:46:52;15.20;99.90
52869;DHT22;39100;53.480;6.158;2023-08-07T06:49:18;15.20;99.90
52869;DHT22;39100;53.480;6.158;2023-08-07T06:51:43;15.20;99.90
52869;DHT22;39100;53.480;6.158;2023-08-07T06:54:09;15.50;99.90
52869;DHT22;39100;53.480;6.158;2023-08-07T06:56:34;15.30;99.90
52869;DHT22;39100;53.480;6.158;2023-08-07T06:59:00;15.30;99.90
52869;DHT22;39100;53.480;6.158;2023-08-07T07:01:26;15.80;99.90
52869;DHT22;39100;53.480;6.158;2023-08-07T07:03:51;15.40;99.90
52869;DHT22;39100;53.480;6.158;2023-08-07T07:06:18;16.40;99.90
52869;DHT22;39100;53.480;6.158;2023-08-07T07:08:44;15.60;99.90
52869;DHT22;39100;53.480;6.158;2023-08-07T07:11:10;15.70;99.90
52869;DHT22;39100;53.480;6.158;2023-08-07T07:13:35;15.80;99.90
52869;DHT22;39100;53.480;6.158;2023-08-07T07:16:02;15.80;99.90
52869;DHT22;39100;53.480;6.158;2023-08-07T07:18:27;15.80;99.90
52869;DHT22;39100;53.480;6.158;2023-08-07T07:20:57;15.80;99.90
52869;DHT22;39100;53.480;6.158;2023-08-07T07:23:24;15.80;99.90
52869;DHT22;39100;53.480;6.158;2023-08-07T07:25:49;15.70;99.90
52869;DHT22;39100;53.480;6.158;2023-08-07T07:28:15;15.60;99.90
52869;DHT22;39100;53.480;6.158;2023-08-07T07:30:40;15.50;99.90
52869;DHT22;39100;53.480;6.158;2023-08-07T07:33:06;15.60;99.90
52869;DHT22;39100;53.480;6.158;2023-08-07T07:35:38;15.40;99.90
52869;DHT22;39100;53.480;6.158;2023-08-07T07:38:04;15.40;99.90
52869;DHT22;39100;53.480;6.158;2023-08-07T07:40:30;15.40;99.90
52869;DHT22;39100;53.480;6.158;2023-08-07T07:42:55;15.50;99.90
52869;DHT22;39100;53.480;6.158;2023-08-07T07:45:21;15.70;99.90
52869;DHT22;39100;53.480;6.158;2023-08-07T07:47:46;16.30;99.90
52869;DHT22;39100;53.480;6.158;2023-08-07T07:50:12;16.30;99.90
52869;DHT22;39100;53.480;6.158;2023-08-07T07:52:39;16.30;99.90
52869;DHT22;39100;53.480;6.158;2023-08-07T07:55:05;16.60;99.90
52869;DHT22;39100;53.480;6.158;2023-08-07T07:57:31;16.80;99.90
52869;DHT22;39100;53.480;6.158;2023-08-07T07:59:57;16.80;99.90
52869;DHT22;39100;53.480;6.158;2023-08-07T08:02:22;16.70;99.90
52869;DHT22;39100;53.480;6.158;2023-08-07T08:04:51;16.80;99.90
52869;DHT22;39100;53.480;6.158;2023-08-07T08:07:18;16.90;99.90
52869;DHT22;39100;53.480;6.158;2023-08-07T08:09:43;17.10;99.90
52869;DHT22;39100;53.480;6.158;2023-08-07T08:12:10;17.20;99.90
52869;DHT22;39100;53.480;6.158;2023-08-07T08:14:35;17.40;99.90
52869;DHT22;39100;53.480;6.158;2023-08-07T08:17:01;17.30;99.90
52869;DHT22;39100;53.480;6.158;2023-08-07T08:19:26;17.90;99.90
52869;DHT22;39100;53.480;6.158;2023-08-07T08:21:52;17.70;99.90
52869;DHT22;39100;53.480;6.158;2023-08-07T08:24:18;17.70;99.90
52869;DHT22;39100;53.480;6.158;2023-08-07T08:26:43;17.80;99.90
52869;DHT22;39100;53.480;6.158;2023-08-07T08:29:09;17.80;99.90
52869;DHT22;39100;53.480;6.158;2023-08-07T08:31:35;17.60;99.90
52869;DHT22;39100;53.480;6.158;2023-08-07T08:34:00;17.60;99.90
52869;DHT22;39100;53.480;6.158;2023-08-07T08:36:26;17.70;99.90
52869;DHT22;39100;53.480;6.158;2023-08-07T08:38:52;17.90;99.90
52869;DHT22;39100;53.480;6.158;2023-08-07T08:41:18;17.90;99.90
52869;DHT22;39100;53.480;6.158;2023-08-07T08:43:45;17.70;99.90
52869;DHT22;39100;53.480;6.158;2023-08-07T08:46:15;17.90;99.90
52869;DHT22;39100;53.480;6.158;2023-08-07T08:48:47;17.70;99.90
52869;DHT22;39100;53.480;6.158;2023-08-07T08:51:15;17.90;99.90
52869;DHT22;39100;53.480;6.158;2023-08-07T08:53:40;17.90;99.90
52869;DHT22;39100;53.480;6.158;2023-08-07T08:56:06;18.10;99.90
52869;DHT22;39100;53.480;6.158;2023-08-07T08:58:32;18.50;99.90
52869;DHT22;39100;53.480;6.158;2023-08-07T09:00:59;18.20;99.90
52869;DHT22;39100;53.480;6.158;2023-08-07T09:03:26;18.10;99.90
52869;DHT22;39100;53.480;6.158;2023-08-07T09:05:58;18.10;99.90
52869;DHT22;39100;53.480;6.158;2023-08-07T09:08:26;18.10;99.90
52869;DHT22;39100;53.480;6.158;2023-08-07T09:10:54;18.20;99.90
52869;DHT22;39100;53.480;6.158;2023-08-07T09:13:22;18.30;99.90
52869;DHT22;39100;53.480;6.158;2023-08-07T09:15:50;18.20;99.90
52869;DHT22;39100;53.480;6.158;2023-08-07T09:18:17;18.10;99.90
52869;DHT22;39100;53.480;6.158;2023-08-07T09:20:44;17.90;99.90
52869;DHT22;39100;53.480;6.158;2023-08-07T09:23:10;17.80;99.90
52869;DHT22;39100;53.480;6.158;2023-08-07T09:25:36;17.60;99.90
52869;DHT22;39100;53.480;6.158;2023-08-07T09:28:03;17.40;99.90
52869;DHT22;39100;53.480;6.158;2023-08-07T09:30:30;17.30;99.90
52869;DHT22;39100;53.480;6.158;2023-08-07T09:33:02;17.20;99.90
52869;DHT22;39100;53.480;6.158;2023-08-07T09:35:29;17.80;99.90
52869;DHT22;39100;53.480;6.158;2023-08-07T09:37:59;17.10;99.90
52869;DHT22;39100;53.480;6.158;2023-08-07T09:40:25;17.30;99.90
52869;DHT22;39100;53.480;6.158;2023-08-07T09:42:52;18.10;99.90
52869;DHT22;39100;53.480;6.158;2023-08-07T09:47:44;17.60;99.90
52869;DHT22;39100;53.480;6.158;2023-08-07T09:50:16;17.90;99.90
52869;DHT22;39100;53.480;6.158;2023-08-07T09:52:48;17.70;99.90
52869;DHT22;39100;53.480;6.158;2023-08-07T09:55:14;17.70;99.90
52869;DHT22;39100;53.480;6.158;2023-08-07T09:57:43;17.70;99.90
52869;DHT22;39100;53.480;6.158;2023-08-07T10:00:09;17.60;99.90
52869;DHT22;39100;53.480;6.158;2023-08-07T10:02:38;17.60;99.90
52869;DHT22;39100;53.480;6.158;2023-08-07T10:05:06;17.50;99.90
52869;DHT22;39100;53.480;6.158;2023-08-07T10:07:32;17.40;99.90
52869;DHT22;39100;53.480;6.158;2023-08-07T10:10:02;17.50;99.90
52869;DHT22;39100;53.480;6.158;2023-08-07T10:12:28;17.70;99.90
52869;DHT22;39100;53.480;6.158;2023-08-07T10:14:55;17.80;99.90
52869;DHT22;39100;53.480;6.158;2023-08-07T10:17:24;17.80;99.90
52869;DHT22;39100;53.480;6.158;2023-08-07T10:19:51;17.90;99.90
52869;DHT22;39100;53.480;6.158;2023-08-07T10:22:20;18.10;99.90
52869;DHT22;39100;53.480;6.158;2023-08-07T10:24:49;18.30;99.90
52869;DHT22;39100;53.480;6.158;2023-08-07T10:27:17;18.60;99.90
52869;DHT22;39100;53.480;6.158;2023-08-07T10:29:46;18.50;99.90
52869;DHT22;39100;53.480;6.158;2023-08-07T10:32:13;18.60;99.90
52869;DHT22;39100;53.480;6.158;2023-08-07T10:34:43;18.80;99.90
52869;DHT22;39100;53.480;6.158;2023-08-07T10:37:32;18.90;99.90
52869;DHT22;39100;53.480;6.158;2023-08-07T10:40:04;18.60;99.90
52869;DHT22;39100;53.480;6.158;2023-08-07T10:45:20;18.30;99.90
52869;DHT22;39100;53.480;6.158;2023-08-07T10:47:57;18.10;99.90
52869;DHT22;39100;53.480;6.158;2023-08-07T10:50:49;18.10;99.90
52869;DHT22;39100;53.480;6.158;2023-08-07T10:53:29;17.90;99.90
52869;DHT22;39100;53.480;6.158;2023-08-07T10:55:54;17.70;99.90
52869;DHT22;39100;53.480;6.158;2023-08-07T10:58:34;17.90;99.90
52869;DHT22;39100;53.480;6.158;2023-08-07T11:03:55;17.70;99.90
52869;DHT22;39100;53.480;6.158;2023-08-07T11:06:26;17.70;99.90
52869;DHT22;39100;53.480;6.158;2023-08-07T11:08:52;17.60;99.90
52869;DHT22;39100;53.480;6.158;2023-08-07T11:11:18;17.60;99.90
52869;DHT22;39100;53.480;6.158;2023-08-07T11:13:43;17.60;99.90
52869;DHT22;39100;53.480;6.158;2023-08-07T11:16:09;17.60;99.90
52869;DHT22;39100;53.480;6.158;2023-08-07T11:18:35;18.20;99.90
52869;DHT22;39100;53.480;6.158;2023-08-07T11:21:10;17.80;99.90
52869;DHT22;39100;53.480;6.158;2023-08-07T11:23:40;17.90;99.90
52869;DHT22;39100;53.480;6.158;2023-08-07T11:26:07;18.70;99.90
52869;DHT22;39100;53.480;6.158;2023-08-07T11:28:32;18.00;99.90
52869;DHT22;39100;53.480;6.158;2023-08-07T11:30:58;18.30;99.90
52869;DHT22;39100;53.480;6.158;2023-08-07T11:33:25;18.20;99.90
52869;DHT22;39100;53.480;6.158;2023-08-07T11:35:52;17.90;99.90
52869;DHT22;39100;53.480;6.158;2023-08-07T11:38:34;17.80;99.90
52869;DHT22;39100;53.480;6.158;2023-08-07T11:41:01;18.20;99.90
52869;DHT22;39100;53.480;6.158;2023-08-07T11:43:28;17.80;99.90
52869;DHT22;39100;53.480;6.158;2023-08-07T11:45:56;18.00;99.90
52869;DHT22;39100;53.480;6.158;2023-08-07T11:48:25;18.00;99.90
52869;DHT22;39100;53.480;6.158;2023-08-07T11:50:52;17.70;99.90
52869;DHT22;39100;53.480;6.158;2023-08-07T11:53:18;17.70;99.90
52869;DHT22;39100;53.480;6.158;2023-08-07T11:55:51;17.60;99.90
52869;DHT22;39100;53.480;6.158;2023-08-07T11:58:17;17.70;99.90
52869;DHT22;39100;53.480;6.158;2023-08-07T12:00:43;17.80;99.90
52869;DHT22;39100;53.480;6.158;2023-08-07T12:03:29;17.90;99.90
52869;DHT22;39100;53.480;6.158;2023-08-07T12:05:56;17.90;99.90
52869;DHT22;39100;53.480;6.158;2023-08-07T12:08:23;18.00;99.90
52869;DHT22;39100;53.480;6.158;2023-08-07T12:10:55;18.10;99.90
52869;DHT22;39100;53.480;6.158;2023-08-07T12:13:23;18.40;99.90
52869;DHT22;39100;53.480;6.158;2023-08-07T12:15:56;18.40;99.90
52869;DHT22;39100;53.480;6.158;2023-08-07T12:18:23;18.50;99.90
52869;DHT22;39100;53.480;6.158;2023-08-07T12:21:02;18.40;99.90
52869;DHT22;39100;53.480;6.158;2023-08-07T12:23:32;18.30;99.90
52869;DHT22;39100;53.480;6.158;2023-08-07T12:25:58;18.40;99.90
52869;DHT22;39100;53.480;6.158;2023-08-07T12:28:23;18.00;99.90
52869;DHT22;39100;53.480;6.158;2023-08-07T12:30:50;18.30;99.90
52869;DHT22;39100;53.480;6.158;2023-08-07T12:33:16;18.00;99.90
52869;DHT22;39100;53.480;6.158;2023-08-07T12:35:42;18.00;99.90
52869;DHT22;39100;53.480;6.158;2023-08-07T12:38:08;17.90;99.90
52869;DHT22;39100;53.480;6.158;2023-08-07T12:40:34;17.80;99.90
52869;DHT22;39100;53.480;6.158;2023-08-07T12:43:04;17.90;99.90
52869;DHT22;39100;53.480;6.158;2023-08-07T12:45:30;17.80;99.90
52869;DHT22;39100;53.480;6.158;2023-08-07T12:47:55;17.70;99.90
52869;DHT22;39100;53.480;6.158;2023-08-07T12:50:21;17.50;99.90
52869;DHT22;39100;53.480;6.158;2023-08-07T12:52:47;17.60;99.90
52869;DHT22;39100;53.480;6.158;2023-08-07T12:55:12;17.80;99.90
52869;DHT22;39100;53.480;6.158;2023-08-07T12:57:41;18.40;99.90
52869;DHT22;39100;53.480;6.158;2023-08-07T13:00:09;18.00;99.90
52869;DHT22;39100;53.480;6.158;2023-08-07T13:02:47;18.10;99.90
52869;DHT22;39100;53.480;6.158;2023-08-07T13:05:14;18.00;99.90
52869;DHT22;39100;53.480;6.158;2023-08-07T13:07:41;17.90;99.90
52869;DHT22;39100;53.480;6.158;2023-08-07T13:10:07;17.70;99.90
52869;DHT22;39100;53.480;6.158;2023-08-07T13:12:35;17.60;99.90
52869;DHT22;39100;53.480;6.158;2023-08-07T13:15:02;17.80;99.90
52869;DHT22;39100;53.480;6.158;2023-08-07T13:17:28;17.60;99.90
52869;DHT22;39100;53.480;6.158;2023-08-07T13:19:53;17.70;99.90
52869;DHT22;39100;53.480;6.158;2023-08-07T13:22:19;17.70;99.90
52869;DHT22;39100;53.480;6.158;2023-08-07T13:24:44;17.70;99.90
52869;DHT22;39100;53.480;6.158;2023-08-07T13:27:10;17.70;99.90
52869;DHT22;39100;53.480;6.158;2023-08-07T13:29:36;17.70;99.90
52869;DHT22;39100;53.480;6.158;2023-08-07T13:32:02;17.80;99.90
52869;DHT22;39100;53.480;6.158;2023-08-07T13:34:37;17.80;99.90
52869;DHT22;39100;53.480;6.158;2023-08-07T13:37:05;17.70;99.90
52869;DHT22;39100;53.480;6.158;2023-08-07T13:39:30;17.80;99.90
52869;DHT22;39100;53.480;6.158;2023-08-07T13:41:56;18.00;99.90
52869;DHT22;39100;53.480;6.158;2023-08-07T13:44:22;18.20;99.90
52869;DHT22;39100;53.480;6.158;2023-08-07T13:46:48;18.50;99.90
52869;DHT22;39100;53.480;6.158;2023-08-07T13:49:14;18.60;99.90
52869;DHT22;39100;53.480;6.158;2023-08-07T13:51:43;18.90;99.90
52869;DHT22;39100;53.480;6.158;2023-08-07T13:54:08;19.00;99.90
52869;DHT22;39100;53.480;6.158;2023-08-07T13:56:34;19.20;99.90
52869;DHT22;39100;53.480;6.158;2023-08-07T13:59:00;19.30;99.90
52869;DHT22;39100;53.480;6.158;2023-08-07T14:01:26;19.40;99.90
52869;DHT22;39100;53.480;6.158;2023-08-07T14:03:53;19.50;99.90
52869;DHT22;39100;53.480;6.158;2023-08-07T14:06:18;19.60;99.90
52869;DHT22;39100;53.480;6.158;2023-08-07T14:08:44;19.70;99.90
52869;DHT22;39100;53.480;6.158;2023-08-07T14:11:09;19.70;99.90
52869;DHT22;39100;53.480;6.158;2023-08-07T14:13:37;19.80;99.90
52869;DHT22;39100;53.480;6.158;2023-08-07T14:16:02;19.60;99.90
52869;DHT22;39100;53.480;6.158;2023-08-07T14:18:28;19.70;99.90
52869;DHT22;39100;53.480;6.158;2023-08-07T14:20:53;19.60;99.90
52869;DHT22;39100;53.480;6.158;2023-08-07T14:23:19;19.30;99.90
52869;DHT22;39100;53.480;6.158;2023-08-07T14:25:44;19.70;99.90
52869;DHT22;39100;53.480;6.158;2023-08-07T14:28:13;19.10;99.90
52869;DHT22;39100;53.480;6.158;2023-08-07T14:30:38;19.10;99.90
52869;DHT22;39100;53.480;6.158;2023-08-07T14:33:04;19.00;99.90
52869;DHT22;39100;53.480;6.158;2023-08-07T14:35:29;19.00;99.90
52869;DHT22;39100;53.480;6.158;2023-08-07T14:37:55;19.40;99.90
52869;DHT22;39100;53.480;6.158;2023-08-07T14:40:21;18.70;99.90
52869;DHT22;39100;53.480;6.158;2023-08-07T14:42:46;18.60;99.90
52869;DHT22;39100;53.480;6.158;2023-08-07T14:45:12;18.70;99.90
52869;DHT22;39100;53.480;6.158;2023-08-07T14:47:37;19.00;99.90
52869;DHT22;39100;53.480;6.158;2023-08-07T14:50:03;19.00;99.90
52869;DHT22;39100;53.480;6.158;2023-08-07T14:52:29;19.00;99.90
52869;DHT22;39100;53.480;6.158;2023-08-07T14:54:54;19.10;99.90
52869;DHT22;39100;53.480;6.158;2023-08-07T14:57:23;19.30;99.90
52869;DHT22;39100;53.480;6.158;2023-08-07T14:59:48;19.00;99.90
52869;DHT22;39100;53.480;6.158;2023-08-07T15:02:14;19.30;99.90
52869;DHT22;39100;53.480;6.158;2023-08-07T15:04:39;19.30;99.90
52869;DHT22;39100;53.480;6.158;2023-08-07T15:07:05;19.10;99.90
52869;DHT22;39100;53.480;6.158;2023-08-07T15:09:31;19.10;99.90
52869;DHT22;39100;53.480;6.158;2023-08-07T15:11:56;19.10;99.90
52869;DHT22;39100;53.480;6.158;2023-08-07T15:14:22;18.90;99.90
52869;DHT22;39100;53.480;6.158;2023-08-07T15:16:47;18.70;99.90
52869;DHT22;39100;53.480;6.158;2023-08-07T15:19:13;19.30;99.90
52869;DHT22;39100;53.480;6.158;2023-08-07T15:21:39;18.20;99.90
52869;DHT22;39100;53.480;6.158;2023-08-07T15:24:04;18.10;99.90
52869;DHT22;39100;53.480;6.158;2023-08-07T15:26:30;18.00;99.90
52869;DHT22;39100;53.480;6.158;2023-08-07T15:28:56;17.80;99.90
52869;DHT22;39100;53.480;6.158;2023-08-07T15:31:22;17.80;99.90
52869;DHT22;39100;53.480;6.158;2023-08-07T15:33:47;17.60;99.90
52869;DHT22;39100;53.480;6.158;2023-08-07T15:36:15;18.40;99.90
52869;DHT22;39100;53.480;6.158;2023-08-07T15:38:41;17.50;99.90
52869;DHT22;39100;53.480;6.158;2023-08-07T15:41:06;17.50;99.90